sensor_id;sensor_type;location;lat;lon;timestamp;temperature;humidity
4081;DHT22;2055;50.074;8.436;2023-06-19T00:00:51;23.40;96.80
4081;DHT22;2055;50.074;8.436;2023-06-19T00:03:17;23.30;97.00
4081;DHT22;2055;50.074;8.436;2023-06-19T00:05:42;23.30;97.20
4081;DHT22;2055;50.074;8.436;2023-06-19T00:08:08;23.30;97.40
4081;DHT22;2055;50.074;8.436;2023-06-19T00:10:34;23.30;97.40
4081;DHT22;2055;50.074;8.436;2023-06-19T00:12:59;23.30;97.30
4081;DHT22;2055;50.074;8.436;2023-06-19T00:15:25;23.30;97.60
4081;DHT22;2055;50.074;8.436;2023-06-19T00:17:50;23.20;97.50
4081;DHT22;2055;50.074;8.436;2023-06-19T00:20:16;23.20;97.50
4081;DHT22;2055;50.074;8.436;2023-06-19T00:22:43;23.20;97.80
4081;DHT22;2055;50.074;8.436;2023-06-19T00:25:08;23.20;97.90
4081;DHT22;2055;50.074;8.436;2023-06-19T00:27:34;23.20;98.10
4081;DHT22;2055;50.074;8.436;2023-06-19T00:29:59;23.10;98.20
4081;DHT22;2055;50.074;8.436;2023-06-19T00:32:27;23.10;98.40
4081;DHT22;2055;50.074;8.436;2023-06-19T00:34:52;23.10;98.50
4081;DHT22;2055;50.074;8.436;2023-06-19T00:37:18;23.10;98.20
4081;DHT22;2055;50.074;8.436;2023-06-19T00:39:43;23.20;98.60
4081;DHT22;2055;50.074;8.436;2023-06-19T00:42:09;22.90;98.90
4081;DHT22;2055;50.074;8.436;2023-06-19T00:44:34;22.60;99.00
4081;DHT22;2055;50.074;8.436;2023-06-19T00:47:02;22.50;99.40
4081;DHT22;2055;50.074;8.436;2023-06-19T00:49:29;22.30;99.30
4081;DHT22;2055;50.074;8.436;2023-06-19T00:51:55;22.20;99.90
4081;DHT22;2055;50.074;8.436;2023-06-19T00:54:21;22.20;99.50
4081;DHT22;2055;50.074;8.436;2023-06-19T00:56:47;22.30;99.40
4081;DHT22;2055;50.074;8.436;2023-06-19T00:59:18;22.40;99.50
4081;DHT22;2055;50.074;8.436;2023-06-19T01:01:45;22.40;99.10
4081;DHT22;2055;50.074;8.436;2023-06-19T01:04:12;22.40;98.90
4081;DHT22;2055;50.074;8.436;2023-06-19T01:06:47;22.50;98.30
4081;DHT22;2055;50.074;8.436;2023-06-19T01:09:16;22.40;98.60
4081;DHT22;2055;50.074;8.436;2023-06-19T01:11:48;22.30;98.00
4081;DHT22;2055;50.074;8.436;2023-06-19T01:14:22;22.40;97.90
4081;DHT22;2055;50.074;8.436;2023-06-19T01:16:51;22.40;97.90
4081;DHT22;2055;50.074;8.436;2023-06-19T01:19:19;22.50;97.90
4081;DHT22;2055;50.074;8.436;2023-06-19T01:21:46;22.40;98.20
4081;DHT22;2055;50.074;8.436;2023-06-19T01:24:12;22.30;98.60
4081;DHT22;2055;50.074;8.436;2023-06-19T01:26:38;22.10;99.10
4081;DHT22;2055;50.074;8.436;2023-06-19T01:29:03;21.90;99.60
4081;DHT22;2055;50.074;8.436;2023-06-19T01:31:39;21.80;99.90
4081;DHT22;2055;50.074;8.436;2023-06-19T01:34:08;21.60;99.90
4081;DHT22;2055;50.074;8.436;2023-06-19T01:36:35;21.40;99.90
4081;DHT22;2055;50.074;8.436;2023-06-19T01:39:01;21.30;99.90
4081;DHT22;2055;50.074;8.436;2023-06-19T01:41:28;21.10;99.90
4081;DHT22;2055;50.074;8.436;2023-06-19T01:43:54;21.00;99.90
4081;DHT22;2055;50.074;8.436;2023-06-19T01:46:20;21.00;99.90
4081;DHT22;2055;50.074;8.436;2023-06-19T01:48:45;21.00;99.90
4081;DHT22;2055;50.074;8.436;2023-06-19T01:51:11;21.30;99.90
4081;DHT22;2055;50.074;8.436;2023-06-19T01:53:36;20.80;99.90
4081;DHT22;2055;50.074;8.436;2023-06-19T01:56:02;20.70;99.90
4081;DHT22;2055;50.074;8.436;2023-06-19T01:58:28;20.60;99.90
4081;DHT22;2055;50.074;8.436;2023-06-19T02:00:54;20.50;99.90
4081;DHT22;2055;50.074;8.436;2023-06-19T02:03:20;20.40;99.90
4081;DHT22;2055;50.074;8.436;2023-06-19T02:05:46;20.40;99.90
4081;DHT22;2055;50.074;8.436;2023-06-19T02:08:11;20.60;99.90
4081;DHT22;2055;50.074;8.436;2023-06-19T02:10:37;20.90;99.90
4081;DHT22;2055;50.074;8.436;2023-06-19T02:13:02;20.70;99.90
4081;DHT22;2055;50.074;8.436;2023-06-19T02:15:28;20.80;99.90
4081;DHT22;2055;50.074;8.436;2023-06-19T02:17:55;21.00;99.90
4081;DHT22;2055;50.074;8.436;2023-06-19T02:20:22;21.00;99.90
4081;DHT22;2055;50.074;8.436;2023-06-19T02:22:49;21.10;99.90
4081;DHT22;2055;50.074;8.436;2023-06-19T02:25:15;21.00;99.90
4081;DHT22;2055;50.074;8.436;2023-06-19T02:27:41;20.90;99.90
4081;DHT22;2055;50.074;8.436;2023-06-19T02:30:06;21.00;99.90
4081;DHT22;2055;50.074;8.436;2023-06-19T02:32:32;21.00;99.90
4081;DHT22;2055;50.074;8.436;2023-06-19T02:34:58;21.00;99.90
4081;DHT22;2055;50.074;8.436;2023-06-19T02:37:23;21.10;99.90
4081;DHT22;2055;50.074;8.436;2023-06-19T02:39:49;21.20;99.90
4081;DHT22;2055;50.074;8.436;2023-06-19T02:42:14;21.20;99.90
4081;DHT22;2055;50.074;8.436;2023-06-19T02:44:40;21.20;99.90
4081;DHT22;2055;50.074;8.436;2023-06-19T02:47:07;21.30;99.90
4081;DHT22;2055;50.074;8.436;2023-06-19T02:49:33;21.40;99.90
4081;DHT22;2055;50.074;8.436;2023-06-19T02:51:58;21.40;99.90
4081;DHT22;2055;50.074;8.436;2023-06-19T02:54:24;21.30;99.90
4081;DHT22;2055;50.074;8.436;2023-06-19T02:56:49;21.30;99.90
4081;DHT22;2055;50.074;8.436;2023-06-19T02:59:15;21.30;99.90
4081;DHT22;2055;50.074;8.436;2023-06-19T03:01:40;21.40;99.90
4081;DHT22;2055;50.074;8.436;2023-06-19T03:04:06;21.40;99.90
4081;DHT22;2055;50.074;8.436;2023-06-19T03:06:31;21.40;99.90
4081;DHT22;2055;50.074;8.436;2023-06-19T03:09:04;21.40;99.90
4081;DHT22;2055;50.074;8.436;2023-06-19T03:11:30;21.40;99.90
4081;DHT22;2055;50.074;8.436;2023-06-19T03:13:56;21.50;99.90
4081;DHT22;2055;50.074;8.436;2023-06-19T03:16:21;21.30;99.90
4081;DHT22;2055;50.074;8.436;2023-06-19T03:18:47;21.40;99.90
4081;DHT22;2055;50.074;8.436;2023-06-19T03:21:14;21.20;99.90
4081;DHT22;2055;50.074;8.436;2023-06-19T03:23:40;21.20;99.90
4081;DHT22;2055;50.074;8.436;2023-06-19T03:26:09;21.20;99.90
4081;DHT22;2055;50.074;8.436;2023-06-19T03:28:35;21.10;99.90
4081;DHT22;2055;50.074;8.436;2023-06-19T03:31:01;21.10;99.90
4081;DHT22;2055;50.074;8.436;2023-06-19T03:33:27;21.20;99.90
4081;DHT22;2055;50.074;8.436;2023-06-19T03:35:52;21.10;99.90
4081;DHT22;2055;50.074;8.436;2023-06-19T03:38:18;21.20;99.90
4081;DHT22;2055;50.074;8.436;2023-06-19T03:40:47;21.20;99.90
4081;DHT22;2055;50.074;8.436;2023-06-19T03:43:12;21.30;99.90
4081;DHT22;2055;50.074;8.436;2023-06-19T03:45:38;21.30;99.90
4081;DHT22;2055;50.074;8.436;2023-06-19T03:48:04;21.30;99.90
4081;DHT22;2055;50.074;8.436;2023-06-19T03:50:29;21.30;99.90
4081;DHT22;2055;50.074;8.436;2023-06-19T03:52:55;21.30;99.90
4081;DHT22;2055;50.074;8.436;2023-06-19T03:55:20;21.40;99.90
4081;DHT22;2055;50.074;8.436;2023-06-19T03:57:46;21.20;99.90
4081;DHT22;2055;50.074;8.436;2023-06-19T04:00:13;21.30;99.90
4081;DHT22;2055;50.074;8.436;2023-06-19T04:02:40;20.80;99.90
4081;DHT22;2055;50.074;8.436;2023-06-19T04:05:06;20.50;99.90
4081;DHT22;2055;50.074;8.436;2023-06-19T04:07:32;20.40;99.90
4081;DHT22;2055;50.074;8.436;2023-06-19T04:09:58;20.30;99.90
4081;DHT22;2055;50.074;8.436;2023-06-19T04:12:24;20.30;99.90
4081;DHT22;2055;50.074;8.436;2023-06-19T04:14:50;20.30;99.90
4081;DHT22;2055;50.074;8.436;2023-06-19T04:17:15;20.30;99.90
4081;DHT22;2055;50.074;8.436;2023-06-19T04:19:41;20.20;99.90
4081;DHT22;2055;50.074;8.436;2023-06-19T04:22:07;20.30;99.90
4081;DHT22;2055;50.074;8.436;2023-06-19T04:24:32;20.50;99.90
4081;DHT22;2055;50.074;8.436;2023-06-19T04:26:58;20.60;99.90
4081;DHT22;2055;50.074;8.436;2023-06-19T04:29:23;20.70;99.90
4081;DHT22;2055;50.074;8.436;2023-06-19T04:31:49;20.70;99.90
4081;DHT22;2055;50.074;8.436;2023-06-19T04:34:18;20.80;99.90
4081;DHT22;2055;50.074;8.436;2023-06-19T04:36:47;20.80;99.90
4081;DHT22;2055;50.074;8.436;2023-06-19T04:39:13;20.80;99.90
4081;DHT22;2055;50.074;8.436;2023-06-19T04:41:38;20.90;99.90
4081;DHT22;2055;50.074;8.436;2023-06-19T04:44:05;21.00;99.90
4081;DHT22;2055;50.074;8.436;2023-06-19T04:46:31;21.00;99.90
4081;DHT22;2055;50.074;8.436;2023-06-19T04:48:56;21.00;99.90
4081;DHT22;2055;50.074;8.436;2023-06-19T04:51:22;21.00;99.90
4081;DHT22;2055;50.074;8.436;2023-06-19T04:53:48;21.00;99.90
4081;DHT22;2055;50.074;8.436;2023-06-19T04:56:16;21.00;99.90
4081;DHT22;2055;50.074;8.436;2023-06-19T04:58:42;21.00;99.90
4081;DHT22;2055;50.074;8.436;2023-06-19T05:01:15;21.10;99.90
4081;DHT22;2055;50.074;8.436;2023-06-19T05:03:41;21.10;99.90
4081;DHT22;2055;50.074;8.436;2023-06-19T05:06:07;21.20;99.90
4081;DHT22;2055;50.074;8.436;2023-06-19T05:08:32;21.20;99.90
4081;DHT22;2055;50.074;8.436;2023-06-19T05:30:12;21.60;99.90
4081;DHT22;2055;50.074;8.436;2023-06-19T05:32:38;22.00;99.90
4081;DHT22;2055;50.074;8.436;2023-06-19T05:35:04;22.00;99.90
4081;DHT22;2055;50.074;8.436;2023-06-19T05:37:30;22.20;99.90
4081;DHT22;2055;50.074;8.436;2023-06-19T05:39:55;22.20;99.90
4081;DHT22;2055;50.074;8.436;2023-06-19T05:42:21;22.20;99.90
4081;DHT22;2055;50.074;8.436;2023-06-19T05:44:46;22.30;99.90
4081;DHT22;2055;50.074;8.436;2023-06-19T05:47:12;22.30;99.90
4081;DHT22;2055;50.074;8.436;2023-06-19T05:49:37;22.30;99.90
4081;DHT22;2055;50.074;8.436;2023-06-19T05:52:06;22.30;99.90
4081;DHT22;2055;50.074;8.436;2023-06-19T05:54:32;22.30;99.90
4081;DHT22;2055;50.074;8.436;2023-06-19T05:56:57;22.10;99.90
4081;DHT22;2055;50.074;8.436;2023-06-19T05:59:23;22.20;99.90
4081;DHT22;2055;50.074;8.436;2023-06-19T06:01:49;22.30;99.90
4081;DHT22;2055;50.074;8.436;2023-06-19T06:04:16;22.30;99.90
4081;DHT22;2055;50.074;8.436;2023-06-19T06:06:42;22.30;99.90
4081;DHT22;2055;50.074;8.436;2023-06-19T06:09:07;22.50;99.90
4081;DHT22;2055;50.074;8.436;2023-06-19T06:11:36;22.60;99.90
4081;DHT22;2055;50.074;8.436;2023-06-19T06:14:02;22.70;99.90
4081;DHT22;2055;50.074;8.436;2023-06-19T06:16:27;22.80;99.90
4081;DHT22;2055;50.074;8.436;2023-06-19T06:18:53;23.10;99.90
4081;DHT22;2055;50.074;8.436;2023-06-19T06:21:18;22.90;99.90
4081;DHT22;2055;50.074;8.436;2023-06-19T06:23:44;22.70;99.90
4081;DHT22;2055;50.074;8.436;2023-06-19T06:26:10;22.50;99.90
4081;DHT22;2055;50.074;8.436;2023-06-19T06:28:36;22.40;99.90
4081;DHT22;2055;50.074;8.436;2023-06-19T06:31:01;22.50;99.90
4081;DHT22;2055;50.074;8.436;2023-06-19T06:33:27;22.50;99.90
4081;DHT22;2055;50.074;8.436;2023-06-19T06:35:55;22.50;99.90
4081;DHT22;2055;50.074;8.436;2023-06-19T06:38:20;22.50;99.90
4081;DHT22;2055;50.074;8.436;2023-06-19T06:40:46;22.40;99.90
4081;DHT22;2055;50.074;8.436;2023-06-19T06:43:12;22.40;99.90
4081;DHT22;2055;50.074;8.436;2023-06-19T06:45:37;22.40;99.90
4081;DHT22;2055;50.074;8.436;2023-06-19T06:48:04;22.50;99.90
4081;DHT22;2055;50.074;8.436;2023-06-19T06:50:31;22.50;99.90
4081;DHT22;2055;50.074;8.436;2023-06-19T06:52:57;23.00;99.90
4081;DHT22;2055;50.074;8.436;2023-06-19T06:55:23;23.30;99.90
4081;DHT22;2055;50.074;8.436;2023-06-19T06:57:48;23.50;99.90
4081;DHT22;2055;50.074;8.436;2023-06-19T07:00:14;23.60;99.90
4081;DHT22;2055;50.074;8.436;2023-06-19T07:02:40;23.50;99.90
4081;DHT22;2055;50.074;8.436;2023-06-19T07:05:08;23.80;99.90
4081;DHT22;2055;50.074;8.436;2023-06-19T07:07:34;23.90;99.90
4081;DHT22;2055;50.074;8.436;2023-06-19T07:09:59;23.90;99.90
4081;DHT22;2055;50.074;8.436;2023-06-19T07:12:25;24.00;99.90
4081;DHT22;2055;50.074;8.436;2023-06-19T07:14:53;23.90;99.90
4081;DHT22;2055;50.074;8.436;2023-06-19T07:17:19;24.10;99.90
4081;DHT22;2055;50.074;8.436;2023-06-19T07:19:44;24.40;99.90
4081;DHT22;2055;50.074;8.436;2023-06-19T07:22:12;24.50;99.90
4081;DHT22;2055;50.074;8.436;2023-06-19T07:24:40;24.30;99.90
4081;DHT22;2055;50.074;8.436;2023-06-19T07:27:06;23.90;99.90
4081;DHT22;2055;50.074;8.436;2023-06-19T07:29:31;23.90;99.90
4081;DHT22;2055;50.074;8.436;2023-06-19T07:31:58;23.70;99.90
4081;DHT22;2055;50.074;8.436;2023-06-19T07:34:23;23.80;99.90
4081;DHT22;2055;50.074;8.436;2023-06-19T07:36:49;23.50;99.90
4081;DHT22;2055;50.074;8.436;2023-06-19T07:39:15;23.70;99.90
4081;DHT22;2055;50.074;8.436;2023-06-19T07:41:41;23.70;99.90
4081;DHT22;2055;50.074;8.436;2023-06-19T07:44:06;23.60;99.90
4081;DHT22;2055;50.074;8.436;2023-06-19T07:46:32;23.80;99.90
4081;DHT22;2055;50.074;8.436;2023-06-19T07:48:57;23.70;99.90
4081;DHT22;2055;50.074;8.436;2023-06-19T07:51:23;24.10;99.90
4081;DHT22;2055;50.074;8.436;2023-06-19T07:53:49;24.30;99.90
4081;DHT22;2055;50.074;8.436;2023-06-19T07:56:14;24.40;99.90
4081;DHT22;2055;50.074;8.436;2023-06-19T07:58:40;24.10;99.90
4081;DHT22;2055;50.074;8.436;2023-06-19T08:01:06;24.20;99.90
4081;DHT22;2055;50.074;8.436;2023-06-19T08:03:32;24.30;99.90
4081;DHT22;2055;50.074;8.436;2023-06-19T08:05:57;24.60;99.90
4081;DHT22;2055;50.074;8.436;2023-06-19T08:08:23;24.70;99.90
4081;DHT22;2055;50.074;8.436;2023-06-19T08:10:48;24.70;99.90
4081;DHT22;2055;50.074;8.436;2023-06-19T08:13:14;24.70;99.90
4081;DHT22;2055;50.074;8.436;2023-06-19T08:15:39;24.70;99.90
4081;DHT22;2055;50.074;8.436;2023-06-19T08:18:05;24.60;99.90
4081;DHT22;2055;50.074;8.436;2023-06-19T08:20:30;25.00;99.90
4081;DHT22;2055;50.074;8.436;2023-06-19T08:22:56;25.20;99.90
4081;DHT22;2055;50.074;8.436;2023-06-19T08:25:23;25.30;99.90
4081;DHT22;2055;50.074;8.436;2023-06-19T08:27:48;25.40;99.90
4081;DHT22;2055;50.074;8.436;2023-06-19T08:30:14;25.40;99.90
4081;DHT22;2055;50.074;8.436;2023-06-19T08:32:39;25.40;99.90
4081;DHT22;2055;50.074;8.436;2023-06-19T08:35:05;25.30;99.90
4081;DHT22;2055;50.074;8.436;2023-06-19T08:37:31;25.50;99.90
4081;DHT22;2055;50.074;8.436;2023-06-19T08:39:56;26.00;99.90
4081;DHT22;2055;50.074;8.436;2023-06-19T08:42:22;26.30;99.90
4081;DHT22;2055;50.074;8.436;2023-06-19T08:44:48;26.10;99.90
4081;DHT22;2055;50.074;8.436;2023-06-19T08:47:14;26.00;99.90
4081;DHT22;2055;50.074;8.436;2023-06-19T08:49:39;26.10;99.90
4081;DHT22;2055;50.074;8.436;2023-06-19T08:52:05;26.10;99.90
4081;DHT22;2055;50.074;8.436;2023-06-19T08:54:32;26.00;99.90
4081;DHT22;2055;50.074;8.436;2023-06-19T08:57:03;26.30;99.90
4081;DHT22;2055;50.074;8.436;2023-06-19T08:59:30;26.40;99.90
4081;DHT22;2055;50.074;8.436;2023-06-19T09:01:57;26.30;99.90
4081;DHT22;2055;50.074;8.436;2023-06-19T09:04:25;26.00;99.90
4081;DHT22;2055;50.074;8.436;2023-06-19T09:06:55;26.40;99.90
4081;DHT22;2055;50.074;8.436;2023-06-19T09:09:24;26.10;99.90
4081;DHT22;2055;50.074;8.436;2023-06-19T09:12:04;26.50;99.90
4081;DHT22;2055;50.074;8.436;2023-06-19T09:14:47;27.00;99.90
4081;DHT22;2055;50.074;8.436;2023-06-19T09:17:19;27.40;99.90
4081;DHT22;2055;50.074;8.436;2023-06-19T09:19:52;27.20;99.90
4081;DHT22;2055;50.074;8.436;2023-06-19T09:22:20;26.70;99.90
4081;DHT22;2055;50.074;8.436;2023-06-19T09:24:47;27.00;99.90
4081;DHT22;2055;50.074;8.436;2023-06-19T09:27:14;27.20;99.90
4081;DHT22;2055;50.074;8.436;2023-06-19T09:29:44;27.20;99.90
4081;DHT22;2055;50.074;8.436;2023-06-19T09:32:28;26.60;99.90
4081;DHT22;2055;50.074;8.436;2023-06-19T09:34:56;26.00;99.90
4081;DHT22;2055;50.074;8.436;2023-06-19T09:37:28;26.30;99.90
4081;DHT22;2055;50.074;8.436;2023-06-19T09:42:27;27.90;99.90
4081;DHT22;2055;50.074;8.436;2023-06-19T09:44:59;27.60;99.90
4081;DHT22;2055;50.074;8.436;2023-06-19T09:47:30;28.40;99.90
4081;DHT22;2055;50.074;8.436;2023-06-19T09:49:56;29.20;99.90
4081;DHT22;2055;50.074;8.436;2023-06-19T09:52:23;29.40;99.90
4081;DHT22;2055;50.074;8.436;2023-06-19T09:54:52;28.80;99.90
4081;DHT22;2055;50.074;8.436;2023-06-19T09:57:18;28.40;99.90
4081;DHT22;2055;50.074;8.436;2023-06-19T09:59:46;28.80;99.90
4081;DHT22;2055;50.074;8.436;2023-06-19T10:02:14;28.70;99.90
4081;DHT22;2055;50.074;8.436;2023-06-19T10:04:54;28.30;99.90
4081;DHT22;2055;50.074;8.436;2023-06-19T10:07:41;29.20;99.90
4081;DHT22;2055;50.074;8.436;2023-06-19T10:10:09;28.60;99.90
4081;DHT22;2055;50.074;8.436;2023-06-19T10:12:43;28.40;99.90
4081;DHT22;2055;50.074;8.436;2023-06-19T10:15:18;27.80;99.90
4081;DHT22;2055;50.074;8.436;2023-06-19T10:20:28;26.80;99.90
4081;DHT22;2055;50.074;8.436;2023-06-19T10:23:18;27.30;99.90
4081;DHT22;2055;50.074;8.436;2023-06-19T10:25:46;27.50;99.90
4081;DHT22;2055;50.074;8.436;2023-06-19T10:28:25;27.30;99.90
4081;DHT22;2055;50.074;8.436;2023-06-19T10:31:03;27.90;99.90
4081;DHT22;2055;50.074;8.436;2023-06-19T10:33:34;28.00;99.90
4081;DHT22;2055;50.074;8.436;2023-06-19T10:36:01;28.20;99.90
4081;DHT22;2055;50.074;8.436;2023-06-19T10:38:27;28.10;99.90
4081;DHT22;2055;50.074;8.436;2023-06-19T10:40:53;28.30;99.90
4081;DHT22;2055;50.074;8.436;2023-06-19T10:43:23;28.00;99.90
4081;DHT22;2055;50.074;8.436;2023-06-19T10:45:50;28.40;99.90
4081;DHT22;2055;50.074;8.436;2023-06-19T10:48:23;28.30;99.90
4081;DHT22;2055;50.074;8.436;2023-06-19T10:50:49;28.30;99.90
4081;DHT22;2055;50.074;8.436;2023-06-19T10:53:29;28.90;99.90
4081;DHT22;2055;50.074;8.436;2023-06-19T10:56:00;28.50;99.90
4081;DHT22;2055;50.074;8.436;2023-06-19T10:58:26;28.20;99.90
4081;DHT22;2055;50.074;8.436;2023-06-19T11:00:52;27.60;99.90
4081;DHT22;2055;50.074;8.436;2023-06-19T11:03:19;27.50;99.90
4081;DHT22;2055;50.074;8.436;2023-06-19T11:05:47;27.20;99.90
4081;DHT22;2055;50.074;8.436;2023-06-19T11:08:21;27.50;99.90
4081;DHT22;2055;50.074;8.436;2023-06-19T11:10:47;27.50;99.90
4081;DHT22;2055;50.074;8.436;2023-06-19T11:13:17;27.40;99.90
4081;DHT22;2055;50.074;8.436;2023-06-19T11:15:43;27.30;99.90
4081;DHT22;2055;50.074;8.436;2023-06-19T11:18:09;27.40;99.90
4081;DHT22;2055;50.074;8.436;2023-06-19T11:20:49;27.60;99.90
4081;DHT22;2055;50.074;8.436;2023-06-19T11:23:17;27.80;99.90
4081;DHT22;2055;50.074;8.436;2023-06-19T11:25:49;27.90;99.90
4081;DHT22;2055;50.074;8.436;2023-06-19T11:28:16;27.50;99.90
4081;DHT22;2055;50.074;8.436;2023-06-19T11:30:49;27.80;99.90
4081;DHT22;2055;50.074;8.436;2023-06-19T11:33:22;27.70;99.90
4081;DHT22;2055;50.074;8.436;2023-06-19T11:35:50;27.90;99.90
4081;DHT22;2055;50.074;8.436;2023-06-19T11:38:26;28.20;99.90
4081;DHT22;2055;50.074;8.436;2023-06-19T11:40:52;28.20;99.90
4081;DHT22;2055;50.074;8.436;2023-06-19T11:43:31;28.80;99.90
4081;DHT22;2055;50.074;8.436;2023-06-19T11:46:04;29.60;99.90
4081;DHT22;2055;50.074;8.436;2023-06-19T11:48:30;29.40;99.90
4081;DHT22;2055;50.074;8.436;2023-06-19T11:50:55;29.60;99.90
4081;DHT22;2055;50.074;8.436;2023-06-19T11:53:22;30.20;99.90
4081;DHT22;2055;50.074;8.436;2023-06-19T11:55:48;30.10;99.90
4081;DHT22;2055;50.074;8.436;2023-06-19T11:58:13;30.20;99.90
4081;DHT22;2055;50.074;8.436;2023-06-19T12:00:41;31.40;99.90
4081;DHT22;2055;50.074;8.436;2023-06-19T12:03:06;31.60;99.90
4081;DHT22;2055;50.074;8.436;2023-06-19T12:05:32;32.30;99.90
4081;DHT22;2055;50.074;8.436;2023-06-19T12:07:58;32.20;99.90
4081;DHT22;2055;50.074;8.436;2023-06-19T12:10:23;32.30;99.90
4081;DHT22;2055;50.074;8.436;2023-06-19T12:12:49;32.70;99.90
4081;DHT22;2055;50.074;8.436;2023-06-19T12:15:14;32.90;99.90
4081;DHT22;2055;50.074;8.436;2023-06-19T12:17:40;33.70;99.90
4081;DHT22;2055;50.074;8.436;2023-06-19T12:20:06;34.00;99.90
4081;DHT22;2055;50.074;8.436;2023-06-19T12:22:33;33.90;99.90
4081;DHT22;2055;50.074;8.436;2023-06-19T12:24:59;34.20;99.90
4081;DHT22;2055;50.074;8.436;2023-06-19T12:27:25;31.90;99.90
4081;DHT22;2055;50.074;8.436;2023-06-19T12:29:51;31.90;99.90
4081;DHT22;2055;50.074;8.436;2023-06-19T12:32:16;31.40;99.90
4081;DHT22;2055;50.074;8.436;2023-06-19T12:34:42;30.80;99.90
4081;DHT22;2055;50.074;8.436;2023-06-19T12:37:14;30.60;99.90
4081;DHT22;2055;50.074;8.436;2023-06-19T12:39:40;30.10;99.90
4081;DHT22;2055;50.074;8.436;2023-06-19T12:42:06;30.00;99.90
4081;DHT22;2055;50.074;8.436;2023-06-19T12:44:34;29.70;99.90
4081;DHT22;2055;50.074;8.436;2023-06-19T12:46:59;29.70;99.90
4081;DHT22;2055;50.074;8.436;2023-06-19T12:49:26;29.70;99.90
4081;DHT22;2055;50.074;8.436;2023-06-19T12:51:51;29.80;99.90
4081;DHT22;2055;50.074;8.436;2023-06-19T12:54:17;31.00;99.90
4081;DHT22;2055;50.074;8.436;2023-06-19T12:56:44;30.50;99.90
4081;DHT22;2055;50.074;8.436;2023-06-19T12:59:09;30.50;99.90
4081;DHT22;2055;50.074;8.436;2023-06-19T13:01:35;31.80;99.90
4081;DHT22;2055;50.074;8.436;2023-06-19T13:04:01;32.60;99.90
4081;DHT22;2055;50.074;8.436;2023-06-19T13:06:27;32.70;99.90
4081;DHT22;2055;50.074;8.436;2023-06-19T13:08:52;33.10;99.90
4081;DHT22;2055;50.074;8.436;2023-06-19T13:11:18;33.00;99.70
4081;DHT22;2055;50.074;8.436;2023-06-19T13:13:43;32.30;99.90
4081;DHT22;2055;50.074;8.436;2023-06-19T13:16:09;32.10;99.90
4081;DHT22;2055;50.074;8.436;2023-06-19T13:18:35;32.10;99.90
4081;DHT22;2055;50.074;8.436;2023-06-19T13:21:00;31.80;99.90
4081;DHT22;2055;50.074;8.436;2023-06-19T13:23:26;31.70;99.90
4081;DHT22;2055;50.074;8.436;2023-06-19T13:25:52;32.50;99.90
4081;DHT22;2055;50.074;8.436;2023-06-19T13:28:17;33.00;99.90
4081;DHT22;2055;50.074;8.436;2023-06-19T13:30:43;33.10;97.90
4081;DHT22;2055;50.074;8.436;2023-06-19T13:33:08;32.90;99.90
4081;DHT22;2055;50.074;8.436;2023-06-19T13:35:34;32.40;99.20
4081;DHT22;2055;50.074;8.436;2023-06-19T13:38:00;31.20;99.90
4081;DHT22;2055;50.074;8.436;2023-06-19T13:40:26;31.20;99.90
4081;DHT22;2055;50.074;8.436;2023-06-19T13:42:51;30.80;99.90
4081;DHT22;2055;50.074;8.436;2023-06-19T13:45:17;30.60;99.90
4081;DHT22;2055;50.074;8.436;2023-06-19T13:47:43;30.20;99.90
4081;DHT22;2055;50.074;8.436;2023-06-19T13:50:08;30.50;99.90
4081;DHT22;2055;50.074;8.436;2023-06-19T13:52:34;31.00;99.60
4081;DHT22;2055;50.074;8.436;2023-06-19T13:55:01;31.00;99.90
4081;DHT22;2055;50.074;8.436;2023-06-19T13:57:27;31.00;99.50
4081;DHT22;2055;50.074;8.436;2023-06-19T13:59:53;30.80;98.30
4081;DHT22;2055;50.074;8.436;2023-06-19T14:02:18;30.70;99.90
4081;DHT22;2055;50.074;8.436;2023-06-19T14:04:44;30.90;99.50
4081;DHT22;2055;50.074;8.436;2023-06-19T14:07:10;31.30;99.90
4081;DHT22;2055;50.074;8.436;2023-06-19T14:09:35;31.40;99.20
4081;DHT22;2055;50.074;8.436;2023-06-19T14:12:01;31.80;99.10
4081;DHT22;2055;50.074;8.436;2023-06-19T14:14:27;31.40;98.00
4081;DHT22;2055;50.074;8.436;2023-06-19T14:16:52;32.20;99.90
4081;DHT22;2055;50.074;8.436;2023-06-19T14:19:18;34.00;98.10
4081;DHT22;2055;50.074;8.436;2023-06-19T14:21:43;35.70;96.20
4081;DHT22;2055;50.074;8.436;2023-06-19T14:24:09;35.40;92.40
4081;DHT22;2055;50.074;8.436;2023-06-19T14:26:34;35.20;93.00
4081;DHT22;2055;50.074;8.436;2023-06-19T14:29:00;36.20;92.20
4081;DHT22;2055;50.074;8.436;2023-06-19T14:31:25;37.10;91.80
4081;DHT22;2055;50.074;8.436;2023-06-19T14:33:51;37.00;88.90
4081;DHT22;2055;50.074;8.436;2023-06-19T14:36:16;35.90;90.50
4081;DHT22;2055;50.074;8.436;2023-06-19T14:38:42;36.20;86.70
4081;DHT22;2055;50.074;8.436;2023-06-19T14:41:07;35.90;86.90
4081;DHT22;2055;50.074;8.436;2023-06-19T14:43:33;35.70;86.80
4081;DHT22;2055;50.074;8.436;2023-06-19T14:46:00;35.90;85.80
4081;DHT22;2055;50.074;8.436;2023-06-19T14:48:26;35.20;88.30
4081;DHT22;2055;50.074;8.436;2023-06-19T14:50:52;35.70;85.20
4081;DHT22;2055;50.074;8.436;2023-06-19T14:53:17;35.90;83.20
4081;DHT22;2055;50.074;8.436;2023-06-19T14:55:43;35.40;83.10
4081;DHT22;2055;50.074;8.436;2023-06-19T14:58:14;35.20;81.80
4081;DHT22;2055;50.074;8.436;2023-06-19T15:00:40;34.20;83.10
4081;DHT22;2055;50.074;8.436;2023-06-19T15:03:06;33.30;82.40
4081;DHT22;2055;50.074;8.436;2023-06-19T15:05:32;32.40;84.50
4081;DHT22;2055;50.074;8.436;2023-06-19T15:07:58;32.90;87.80
4081;DHT22;2055;50.074;8.436;2023-06-19T15:10:25;34.20;86.90
4081;DHT22;2055;50.074;8.436;2023-06-19T15:12:50;34.60;85.60
4081;DHT22;2055;50.074;8.436;2023-06-19T15:15:16;35.40;83.60
4081;DHT22;2055;50.074;8.436;2023-06-19T15:17:41;35.80;80.40
4081;DHT22;2055;50.074;8.436;2023-06-19T15:20:07;35.10;83.50
4081;DHT22;2055;50.074;8.436;2023-06-19T15:22:34;32.80;81.20
4081;DHT22;2055;50.074;8.436;2023-06-19T15:25:02;32.80;83.80
4081;DHT22;2055;50.074;8.436;2023-06-19T15:27:28;34.10;83.60
4081;DHT22;2055;50.074;8.436;2023-06-19T15:29:53;33.90;82.10
4081;DHT22;2055;50.074;8.436;2023-06-19T15:32:19;34.00;81.50
4081;DHT22;2055;50.074;8.436;2023-06-19T15:34:44;33.00;81.90
4081;DHT22;2055;50.074;8.436;2023-06-19T15:37:10;33.50;83.40
4081;DHT22;2055;50.074;8.436;2023-06-19T15:39:36;33.70;81.50
4081;DHT22;2055;50.074;8.436;2023-06-19T15:42:02;33.30;80.60
4081;DHT22;2055;50.074;8.436;2023-06-19T15:44:28;33.10;80.90
4081;DHT22;2055;50.074;8.436;2023-06-19T15:46:53;32.00;82.40
4081;DHT22;2055;50.074;8.436;2023-06-19T15:49:19;31.40;83.10
4081;DHT22;2055;50.074;8.436;2023-06-19T15:51:44;30.90;86.10
4081;DHT22;2055;50.074;8.436;2023-06-19T15:54:10;30.90;85.60
4081;DHT22;2055;50.074;8.436;2023-06-19T15:56:37;31.00;85.70
4081;DHT22;2055;50.074;8.436;2023-06-19T15:59:03;30.90;86.20
4081;DHT22;2055;50.074;8.436;2023-06-19T16:01:28;30.80;86.30
4081;DHT22;2055;50.074;8.436;2023-06-19T16:03:54;30.50;88.30
4081;DHT22;2055;50.074;8.436;2023-06-19T16:06:19;30.30;90.10
4081;DHT22;2055;50.074;8.436;2023-06-19T16:08:45;29.90;89.10
4081;DHT22;2055;50.074;8.436;2023-06-19T16:11:10;29.60;89.40
4081;DHT22;2055;50.074;8.436;2023-06-19T16:13:36;29.50;90.60
4081;DHT22;2055;50.074;8.436;2023-06-19T16:16:02;29.50;91.10
4081;DHT22;2055;50.074;8.436;2023-06-19T16:18:27;29.70;90.70
4081;DHT22;2055;50.074;8.436;2023-06-19T16:20:53;29.80;90.70
4081;DHT22;2055;50.074;8.436;2023-06-19T16:23:18;29.70;90.90